• Join FlightAware (Why Join?)
  • Login
  • US Flag 
01:45AM EDT


 

Airport Tracker/Info


-or-


 

Live Flight TrackerFlight Track Log ✈ JBU527 ✈ 19-Apr-2013 ✈ KEWR - KMCO

Flight Track Log - Related Links

Times and Time Zones

All times are in EDT time to prevent confusion due to time zone crossing. See the JBU527 flight status page for this flight to view local times or setup timezone preferences in your user account.

Time Position Orientation Groundspeed Altitude Reporting Facility
EDT Latitude Longitude Course Direction KTS MPH feet Rate Location/Type
10:46PM 40.6734 -74.1802 11° North 164 189 1,000  Level FlightAware ADS-B
10:46PM 40.6698 -74.1818 199° South 161 185 1,200 2,760 Climbing FlightAware ADS-B
10:46PM 40.6636 -74.1823 184° South 164 189 1,600 2,520 Climbing FlightAware ADS-B
10:46PM 40.6586 -74.1816 174° South 175 201 1,800 1,800 Climbing FlightAware ADS-B
10:46PM 40.6536 -74.1807 172° South 180 207 2,000 1,620 Climbing FlightAware ADS-B
10:46PM 40.6503 -74.1806 179° South 181 208 2,100 1,680 Climbing FlightAware ADS-B
10:47PM 40.6476 -74.1811 188° South 180 207 2,200 1,980 Climbing FlightAware ADS-B
10:47PM 40.6449 -74.1821 196° South 178 205 2,300 960 Climbing FlightAware ADS-B
10:47PM 40.6425 -74.1835 204° Southwest 179 206 2,300 840 Level FlightAware ADS-B
10:47PM 40.6398 -74.1858 213° Southwest 179 206 2,400 1,320 Climbing FlightAware ADS-B
10:47PM 40.6372 -74.1891 224° Southwest 183 211 2,500 1,500 Climbing FlightAware ADS-B
10:47PM 40.6356 -74.1922 236° Southwest 188 216 2,600 1,200 Climbing FlightAware ADS-B
10:47PM 40.6334 -74.1998 249° West 200 230 2,700 1,080 Climbing FlightAware ADS-B
10:47PM 40.6329 -74.2050 263° West 210 242 2,800 1,500 Climbing FlightAware ADS-B
10:47PM 40.6327 -74.2103 267° West 215 247 2,900 1,980 Climbing FlightAware ADS-B
10:47PM 40.6329 -74.2250 271° West 229 264 3,300 2,760 Climbing FlightAware ADS-B
10:47PM 40.6338 -74.2470 273° West 233 268 4,100 3,480 Climbing FlightAware ADS-B
10:48PM 40.6345 -74.2593 274° West 231 266 4,700 3,720 Climbing FlightAware ADS-B
10:48PM 40.6351 -74.2683 275° West 233 268 5,100 3,600 Climbing FlightAware ADS-B
10:48PM 40.6359 -74.2796 275° West 232 267 5,600 3,600 Climbing FlightAware ADS-B
10:48PM 40.6376 -74.3005 276° West 236 272 6,500 3,360 Climbing FlightAware ADS-B
10:48PM 40.6378 -74.3025 278° West 235 270 6,500 2,820 Level FlightAware ADS-B
10:48PM 40.6399 -74.3263 277° West 243 280 7,300 2,820 Climbing FlightAware ADS-B
10:48PM 40.6402 -74.3295 277° West 241 277 7,400 3,000 Climbing FlightAware ADS-B
10:49PM 40.6417 -74.3460 277° West 247 284 8,000 3,000 Climbing FlightAware ADS-B
10:49PM 40.6428 -74.3574 277° West 250 288 8,300 2,760 Climbing FlightAware ADS-B
10:49PM 40.6441 -74.3686 279° West 253 291 8,700 3,120 Climbing FlightAware ADS-B
10:49PM 40.6470 -74.3916 279° West 254 292 9,500 3,120 Climbing FlightAware ADS-B
10:49PM 40.6487 -74.4034 281° West 253 291 9,900 2,400 Climbing FlightAware ADS-B
10:50PM 40.6539 -74.4391 281° West 274 315 10,700 1,740 Climbing FlightAware ADS-B
10:50PM 40.6559 -74.4593 277° West 282 325 10,900 780 Climbing FlightAware ADS-B
10:50PM 40.6582 -74.5156 273° West 319 367 11,300 600 Climbing FlightAware ADS-B
10:51PM 40.6582 -74.5306 270° West 317 365 11,300  Level FlightAware ADS-B
10:51PM 40.6567 -74.5424 260° West 310 357 11,300  Level FlightAware ADS-B
10:51PM 40.6539 -74.5540 252° West 302 348 11,300  Level FlightAware ADS-B
10:51PM 40.6358 -74.6032 244° Southwest 297 342 11,300  Level FlightAware ADS-B
10:51PM 40.6261 -74.6284 243° Southwest 295 339 11,300  Level FlightAware ADS-B
10:52PM 40.6184 -74.6443 237° Southwest 293 337 11,300 840 Level FlightAware ADS-B
10:52PM 40.5929 -74.6861 231° Southwest 290 334 11,900 2,640 Climbing FlightAware ADS-B
10:53PM 40.5685 -74.7265 232° Southwest 268 308 14,000 3,240 Climbing FlightAware ADS-B
10:53PM 40.5448 -74.7657 232° Southwest 272 313 15,300 2,040 Climbing FlightAware ADS-B
10:54PM 40.5204 -74.8058 231° Southwest 288 331 16,100 1,560 Climbing FlightAware ADS-B
10:54PM 40.4946 -74.8482 231° Southwest 303 349 16,900 1,560 Climbing FlightAware ADS-B
10:55PM 40.4672 -74.8934 231° Southwest 315 362 17,700 1,440 Climbing FlightAware ADS-B
10:55PM 40.4389 -74.9399 231° Southwest 329 379 18,400 1,440 Climbing FlightAware ADS-B
10:56PM 40.4198 -74.9714 231° Southwest 336 387 18,900 1,500 Climbing FlightAware ADS-B
10:56PM 40.3871 -75.0178 227° Southwest 346 398 19,700 1,620 Climbing FlightAware ADS-B
10:57PM 40.3539 -75.0644 227° Southwest 349 402 20,600 2,880 Climbing FlightAware ADS-B
10:57PM 40.3221 -75.1092 227° Southwest 320 368 22,600 3,180 Climbing FlightAware ADS-B
10:58PM 40.2908 -75.1532 227° Southwest 311 358 23,900 1,980 Climbing FlightAware ADS-B
10:58PM 40.2605 -75.1956 227° Southwest 315 362 24,700 1,320 Climbing FlightAware ADS-B
10:59PM 40.2302 -75.2379 227° Southwest 323 372 25,300 1,200 Climbing FlightAware ADS-B
10:59PM 40.1991 -75.2811 227° Southwest 330 380 25,900 1,260 Climbing FlightAware ADS-B
11:00PM 40.1663 -75.3267 227° Southwest 337 388 26,600 1,260 Climbing FlightAware ADS-B
11:00PM 40.1335 -75.3723 227° Southwest 343 395 27,200 1,140 Climbing FlightAware ADS-B
11:01PM 40.1005 -75.4182 227° Southwest 348 400 27,800 1,140 Climbing FlightAware ADS-B
11:01PM 40.0669 -75.4648 227° Southwest 352 405 28,400 1,140 Climbing FlightAware ADS-B
11:02PM 40.0322 -75.5128 227° Southwest 355 409 29,000 1,140 Climbing FlightAware ADS-B
11:02PM 39.9981 -75.5601 227° Southwest 358 412 29,600 1,200 Climbing FlightAware ADS-B
11:03PM 39.9637 -75.6074 227° Southwest 360 414 30,200 1,140 Climbing FlightAware ADS-B
11:03PM 39.9270 -75.6580 227° Southwest 362 417 30,800 1,140 Climbing FlightAware ADS-B
11:04PM 39.9006 -75.6977 229° Southwest 364 419 31,300 1,140 Climbing FlightAware ADS-B
11:04PM 39.8667 -75.7522 231° Southwest 365 420 31,900 1,140 Climbing FlightAware ADS-B
11:05PM 39.8344 -75.8043 231° Southwest 363 418 32,500 1,140 Climbing FlightAware ADS-B
11:05PM 39.8020 -75.8563 231° Southwest 363 418 33,100 1,260 Climbing FlightAware ADS-B
11:06PM 39.7694 -75.9080 231° Southwest 360 414 33,800 900 Climbing FlightAware ADS-B
11:06PM 39.7375 -75.9586 231° Southwest 368 423 34,000 180 Climbing FlightAware ADS-B
11:07PM 39.7043 -76.0113 231° Southwest 377 434 34,000  Level FlightAware ADS-B
11:07PM 39.6710 -76.0640 231° Southwest 367 422 34,000  Level FlightAware ADS-B
11:08PM 39.6384 -76.1158 231° Southwest 364 419 34,000  Level FlightAware ADS-B
11:08PM 39.6038 -76.1706 231° Southwest 365 420 34,000  Level FlightAware ADS-B
11:09PM 39.5701 -76.2231 230° Southwest 366 421 34,000  Level FlightAware ADS-B
11:09PM 39.5357 -76.2759 230° Southwest 364 419 34,000  Level FlightAware ADS-B
11:10PM 39.5033 -76.3255 230° Southwest 360 414 34,000  Level FlightAware ADS-B
11:10PM 39.4708 -76.3752 230° Southwest 357 411 34,000  Level FlightAware ADS-B
11:11PM 39.4392 -76.4241 230° Southwest 354 407 34,000  Level FlightAware ADS-B
11:11PM 39.4061 -76.4767 231° Southwest 351 404 34,000  Level FlightAware ADS-B
11:12PM 39.3740 -76.5274 231° Southwest 349 402 34,000  Level FlightAware ADS-B
11:12PM 39.3420 -76.5778 231° Southwest 349 402 34,000 240 Level FlightAware ADS-B
11:13PM 39.3109 -76.6266 231° Southwest 354 407 34,300 720 Climbing FlightAware ADS-B
11:13PM 39.2781 -76.6779 230° Southwest 354 407 34,800 1,020 Climbing FlightAware ADS-B
11:14PM 39.2468 -76.7268 230° Southwest 350 403 35,400 1,080 Climbing FlightAware ADS-B
11:14PM 39.2150 -76.7765 230° Southwest 349 402 35,900 540 Climbing FlightAware ADS-B
11:15PM 39.1827 -76.8267 230° Southwest 347 399 36,000 60 Climbing FlightAware ADS-B
11:15PM 39.1521 -76.8743 230° Southwest 342 394 36,000  Level FlightAware ADS-B
11:16PM 39.1215 -76.9219 230° Southwest 342 394 36,000  Level FlightAware ADS-B
11:16PM 39.0911 -76.9691 230° Southwest 340 391 36,000  Level FlightAware ADS-B
11:17PM 39.0600 -77.0166 230° Southwest 343 395 36,000  Level FlightAware ADS-B
11:17PM 39.0458 -77.0354 226° Southwest 342 394 36,000  Level FlightAware ADS-B
11:17PM 39.0317 -77.0518 222° Southwest 341 392 36,000 120 Level FlightAware ADS-B
11:18PM 38.9929 -77.0943 220° Southwest 343 395 36,100 60 Climbing FlightAware ADS-B
11:18PM 38.9553 -77.1359 221° Southwest 343 395 36,100  Level FlightAware ADS-B
11:19PM 38.9184 -77.1766 221° Southwest 342 394 36,100  Level FlightAware ADS-B
11:19PM 38.8823 -77.2162 220° Southwest 341 392 36,100 -120 Level FlightAware ADS-B
11:20PM 38.8458 -77.2562 220° Southwest 340 391 36,000 -120 Descending FlightAware ADS-B
11:21PM 38.8074 -77.2983 221° Southwest 340 391 36,000  Level FlightAware ADS-B
11:21PM 38.7692 -77.3403 221° Southwest 340 391 36,000  Level FlightAware ADS-B
11:22PM 38.7331 -77.3796 220° Southwest 341 392 36,000  Level FlightAware ADS-B
11:22PM 38.6963 -77.4196 220° Southwest 341 392 36,000  Level FlightAware ADS-B
11:23PM 38.6597 -77.4593 220° Southwest 341 392 36,000  Level FlightAware ADS-B
11:23PM 38.6222 -77.4999 220° Southwest 341 392 36,000  Level FlightAware ADS-B
11:24PM 38.5858 -77.5392 220° Southwest 341 392 36,000  Level FlightAware ADS-B
11:24PM 38.5484 -77.5798 220° Southwest 340 391 36,000  Level FlightAware ADS-B
11:25PM 38.5114 -77.6198 220° Southwest 343 395 36,000  Level FlightAware ADS-B
11:25PM 38.4738 -77.6600 220° Southwest 353 406 36,000  Level FlightAware ADS-B
11:26PM 38.4364 -77.7003 220° Southwest 353 406 36,000  Level FlightAware ADS-B
11:26PM 38.3989 -77.7410 220° Southwest 351 404 36,000  Level FlightAware ADS-B
11:27PM 38.3609 -77.7822 220° Southwest 350 403 36,000  Level FlightAware ADS-B
11:27PM 38.3201 -77.8261 220° Southwest 347 399 36,000  Level FlightAware ADS-B
11:28PM 38.2791 -77.8702 220° Southwest 340 391 36,000  Level FlightAware ADS-B
11:28PM 38.2412 -77.9107 220° Southwest 336 387 36,000  Level FlightAware ADS-B
11:29PM 38.2033 -77.9510 220° Southwest 339 390 36,000 -120 Level FlightAware ADS-B
11:29PM 38.1661 -77.9907 220° Southwest 334 384 35,900 -600 Descending FlightAware ADS-B
11:30PM 38.1299 -78.0293 220° Southwest 335 386 35,400 -960 Descending FlightAware ADS-B
11:30PM 38.0915 -78.0700 220° Southwest 345 397 34,900 -1,020 Descending FlightAware ADS-B
11:31PM 38.0485 -78.1155 220° Southwest 351 404 34,300 -780 Descending FlightAware ADS-B
11:32PM 38.0110 -78.1550 220° Southwest 353 406 34,000 -240 Descending FlightAware
11:32PM 37.9620 -78.2040 218° Southwest 353 406 34,000  Level FlightAware
11:33PM 37.8880 -78.2730 216° Southwest 350 403 34,000  Level FlightAware
11:34PM 37.8240 -78.3340 217° Southwest 349 402 34,000 -420 Level FlightAware
11:35PM 37.7750 -78.3800 217° Southwest 344 396 33,500 -900 Descending FlightAware
11:36PM 37.6930 -78.4580 217° Southwest 345 397 32,500 -600 Descending FlightAware
11:36PM 37.6540 -78.4950 217° Southwest 345 397 32,500  Level FlightAware
11:37PM 37.6000 -78.5470 217° Southwest 345 397 32,500  Level FlightAware
11:38PM 37.5570 -78.5880 217° Southwest 345 397 32,500  Level FlightAware
11:38PM 37.5130 -78.6290 216° Southwest 345 397 32,500 -360 Level FlightAware
11:39PM 37.4190 -78.7170 217° Southwest 350 403 32,000 -360 Descending FlightAware
11:40PM 37.3620 -78.7700 216° Southwest 350 403 32,000  Level FlightAware
11:41PM 37.2960 -78.8320 217° Southwest 350 403 32,000  Level FlightAware
11:42PM 37.2160 -78.9070 217° Southwest 350 403 32,000  Level FlightAware
11:42PM 37.1720 -78.9490 217° Southwest 350 403 32,000  Level FlightAware
11:43PM 37.1280 -78.9910 217° Southwest 350 403 32,000  Level FlightAware
11:44PM 37.0840 -79.0320 217° Southwest 350 403 32,000  Level FlightAware
11:45PM 37.0290 -79.0840 217° Southwest 350 403 32,000  Level FlightAware
11:45PM 36.9850 -79.1260 217° Southwest 350 403 32,000  Level FlightAware
11:46PM 36.9410 -79.1670 217° Southwest 350 403 32,000  Level FlightAware
11:47PM 36.8970 -79.2080 217° Southwest 350 403 32,000  Level FlightAware
11:47PM 36.8530 -79.2500 217° Southwest 350 403 32,000  Level FlightAware
11:48PM 36.8090 -79.2910 217° Southwest 350 403 32,000  Level FlightAware
11:49PM 36.7650 -79.3330 217° Southwest 350 403 32,000  Level FlightAware
11:49PM 36.7210 -79.3740 217° Southwest 350 403 32,000  Level FlightAware
11:50PM 36.6660 -79.4260 217° Southwest 350 403 32,000  Level FlightAware
11:50PM 36.6440 -79.4460 216° Southwest 350 403 32,000  Level FlightAware
11:51PM 36.6000 -79.4880 217° Southwest 350 403 32,000  Level FlightAware
11:52PM 36.4172 -79.6347 217° Southwest 367 422 32,000  Level Atlanta Center
11:53PM 36.3406 -79.7086 218° Southwest 368 423 32,000  Level Atlanta Center
11:54PM 36.2678 -79.7717 215° Southwest 368 423 32,000  Level Atlanta Center
11:55PM 36.1908 -79.8428 217° Southwest 362 417 32,000  Level Atlanta Center
11:56PM 36.1097 -79.9086 213° Southwest 356 410 32,000  Level Atlanta Center
11:57PM 36.0289 -79.9819 216° Southwest 356 410 32,000  Level Atlanta Center
11:58PM 35.9303 -80.0306 202° Southwest 356 410 32,000  Level Atlanta Center
11:59PM 35.8400 -80.0786 203° Southwest 356 410 32,000  Level Atlanta Center
12:05AM 35.2810 -80.3600 203° Southwest 369 425 32,000  Level FlightAware
12:05AM 35.2190 -80.3910 202° Southwest 370 426 32,000 60 Level FlightAware
12:06AM 35.1660 -80.4170 202° Southwest 370 426 32,100  Climbing FlightAware
12:07AM 35.1520 -80.4240 202° Southwest 369 425 32,000 -120 Descending FlightAware
12:07AM 35.0150 -80.4920 202° Southwest 371 427 32,000  Level FlightAware
12:08AM 34.9370 -80.5310 202° Southwest 372 428 32,000  Level FlightAware
12:09AM 34.8600 -80.5680 202° Southwest 376 433 32,000  Level FlightAware
12:10AM 34.7890 -80.6030 202° Southwest 378 435 32,000  Level FlightAware
12:11AM 34.7210 -80.6390 204° Southwest 378 435 32,000  Level FlightAware
12:11AM 34.6660 -80.6670 203° Southwest 378 435 32,000  Level FlightAware
12:12AM 34.6110 -80.6950 203° Southwest 378 435 32,000  Level FlightAware
12:13AM 34.5570 -80.7230 203° Southwest 378 435 32,000  Level FlightAware
12:13AM 34.5020 -80.7520 203° Southwest 378 435 32,000  Level FlightAware
12:14AM 34.4340 -80.7870 203° Southwest 378 435 32,000  Level FlightAware
12:15AM 34.3790 -80.8150 203° Southwest 378 435 32,000  Level FlightAware
12:16AM 34.2160 -80.8830 199° South 381 438 32,000  Level FlightAware
12:16AM 34.1506 -80.9153 199° South 375 432 32,000  Level Jacksonville Center
12:17AM 34.0533 -80.9625 202° Southwest 375 432 32,000  Level Jacksonville Center
12:18AM 33.9558 -81.0072 201° Southwest 375 432 32,000  Level Jacksonville Center
12:19AM 33.8500 -81.0519 199° South 375 432 32,000  Level Jacksonville Center
12:20AM 33.7647 -81.0639 187° South 375 432 32,000 -60 Level Jacksonville Center
12:21AM 33.6481 -81.0736 184° South 380 437 31,900 -60 Descending Jacksonville Center
12:22AM 33.5397 -81.0858 185° South 390 449 31,900  Level Jacksonville Center
12:23AM 33.4314 -81.0956 184° South 390 449 32,000  Climbing Jacksonville Center
12:24AM 33.3208 -81.1028 183° South 395 455 32,000  Level Jacksonville Center
12:25AM 33.2103 -81.1125 184° South 395 455 32,000  Level Jacksonville Center
12:31AM 32.5350 -81.1670 184° South 414 476 32,000  Level FlightAware
12:32AM 32.4710 -81.1740 185° South 414 476 32,000  Level FlightAware
12:33AM 32.3890 -81.1820 185° South 414 476 32,000  Level FlightAware
12:34AM 32.3250 -81.1890 185° South 414 476 32,000  Level FlightAware
12:34AM 32.2600 -81.1960 185° South 414 476 32,000  Level FlightAware
12:35AM 32.1390 -81.1980 181° South 418 481 32,000  Level FlightAware
12:36AM 32.0280 -81.1950 179° South 422 486 32,000  Level FlightAware
12:36AM 31.9760 -81.1940 179° South 423 487 32,000  Level FlightAware
12:37AM 31.8890 -81.1910 178° South 425 489 32,000  Level FlightAware
12:38AM 31.7810 -81.1870 178° South 425 489 32,000  Level FlightAware
12:39AM 31.7010 -81.1850 179° South 427 491 32,000  Level FlightAware
12:39AM 31.6200 -81.1820 178° South 427 491 32,000  Level FlightAware
12:40AM 31.5250 -81.1790 178° South 428 493 32,000  Level FlightAware
12:41AM 31.4340 -81.1760 178° South 429 494 32,000  Level FlightAware
12:41AM 31.3660 -81.1730 178° South 429 494 32,000  Level FlightAware
12:42AM 31.2990 -81.1700 178° South 429 494 32,000  Level FlightAware
12:43AM 31.2310 -81.1680 179° South 429 494 32,000  Level FlightAware
12:44AM 31.1470 -81.1640 178° South 429 494 32,000  Level FlightAware
12:44AM 31.0800 -81.1610 178° South 429 494 32,000  Level FlightAware
12:45AM 31.0120 -81.1590 179° South 429 494 32,000  Level FlightAware
12:46AM 30.9450 -81.1560 178° South 429 494 32,000  Level FlightAware
12:46AM 30.8770 -81.1530 178° South 429 494 32,000  Level FlightAware
12:47AM 30.8100 -81.1500 178° South 429 494 32,000  Level FlightAware
12:48AM 30.7250 -81.1470 178° South 429 494 32,000  Level FlightAware
12:48AM 30.6580 -81.1440 178° South 429 494 32,000  Level FlightAware
12:49AM 30.5910 -81.1410 178° South 429 494 32,000  Level FlightAware
12:50AM 30.5230 -81.1390 179° South 429 494 32,000  Level FlightAware
12:50AM 30.2525 -81.1419 179° South 441 507 32,000 -480 Level Jacksonville Center
12:51AM 30.1292 -81.1394 179° South 441 507 31,300 -1,140 Descending Jacksonville Center
12:52AM 30.0039 -81.1344 178° South 441 507 29,800 -1,920 Descending Jacksonville Center
12:53AM 29.8764 -81.1319 179° South 441 507 27,500 -2,280 Descending Jacksonville Center
12:54AM 29.7575 -81.1269 178° South 441 507 25,300 -2,160 Descending Jacksonville Center
12:55AM 29.6447 -81.1242 179° South 433 498 23,200 -2,100 Descending Jacksonville Center
12:56AM 29.5381 -81.1239 180° South 412 474 21,100 -1,740 Descending Jacksonville Center
01:02AM 28.9990 -81.0870 180° South 275 316 11,900 -1,620 Descending FlightAware
01:03AM 28.9410 -81.0770 171° South 277 319 11,200 -1,380 Descending FlightAware
01:03AM 28.8850 -81.0680 172° South 278 320 9,900 -1,740 Descending FlightAware
01:04AM 28.8620 -81.0640 171° South 275 316 9,500 -1,380 Descending FlightAware
01:04AM 28.8420 -81.0600 170° South 281 323 9,100 -1,800 Descending FlightAware
01:05AM 28.7740 -81.0650 184° South 271 312 7,400 -1,800 Descending FlightAware
01:05AM 28.7590 -81.0850 229° Southwest 265 305 7,000 -1,200 Descending FlightAware
01:05AM 28.7530 -81.1050 251° West 262 302 6,700 -1,380 Descending FlightAware
01:06AM 28.7490 -81.1350 261° West 259 298 6,200 -1,080 Descending FlightAware
01:06AM 28.7460 -81.1670 264° West 252 290 5,900 -1,080 Descending FlightAware
01:07AM 28.7430 -81.1940 263° West 251 289 5,300 -1,740 Descending FlightAware
01:07AM 28.7360 -81.2590 263° West 254 292 3,900 -1,560 Descending FlightAware
01:08AM 28.7320 -81.2990 264° West 235 270 3,400 -840 Descending FlightAware
01:08AM 28.7300 -81.3150 262° West 220 253 3,300 -780 Descending FlightAware
01:09AM 28.7120 -81.3330 221° Southwest 195 224 2,900 -480 Descending FlightAware
01:09AM 28.6870 -81.3330 180° South 165 190 2,900 -120 Level FlightAware
01:09AM 28.6710 -81.3320 177° South 162 186 2,800 -780 Descending FlightAware
01:10AM 28.6430 -81.3270 171° South 162 186 2,200 -660 Descending FlightAware
01:10AM 28.6190 -81.3250 176° South 165 190 2,100 -120 Descending FlightAware
01:11AM 28.5990 -81.3240 177° South 165 190 2,100  Level FlightAware
01:11AM 28.5760 -81.3230 178° South 162 186 2,100  Level FlightAware
01:12AM 28.5530 -81.3230 180° South 148 170 2,100  Level FlightAware
01:12AM 28.5370 -81.3230 180° South 130 150 2,100 -720 Level FlightAware
01:13AM 28.5240 -81.3230 180° South 129 148 1,600 -1,140 Descending FlightAware
01:13AM 28.5030 -81.3230 180° South 132 152 1,100 -840 Descending FlightAware
01:14AM 28.4880 -81.3230 180° South 131 151 800 -720 Descending FlightAware
01:14AM 28.4730 -81.3230 180° South 131 151 500 -720 Descending FlightAware
01:15AM 28.4460 -81.3220 178° South 131 151 -720 Descending FlightAware